Time;durP1;ratioP1;P1;durP2;ratioP2;P2;SDS_P1;SDS_P2;PMS_P1;PMS_P2;Temp;Humidity;BMP_temperature;BMP_pressure;BME280_temperature;BME280_humidity;BME280_pressure;Samples;Min_cycle;Max_cycle;Signal;HPM_P1;HPM_P2
2022/11/04 00:01:43;;;;;;;10.80;9.00;;;11.50;99.90;;;;;;5015568;28;20053;-88
2022/11/04 00:04:11;;;;;;;7.25;6.50;;;11.50;99.90;;;;;;5010679;28;20395;-89
2022/11/04 00:06:37;;;;;;;4.35;4.00;;;11.50;99.90;;;;;;5018207;28;20037;-89
2022/11/04 00:09:04;;;;;;;4.35;3.30;;;11.40;99.90;;;;;;5018405;28;20041;-89
2022/11/04 00:14:16;;;;;;;3.28;1.90;;;11.30;99.90;;;;;;4978183;28;20048;-88
2022/11/04 00:19:27;;;;;;;3.10;1.35;;;11.10;99.90;;;;;;5025997;28;20135;-89
2022/11/04 00:30:00;;;;;;;1.60;0.85;;;10.90;99.90;;;;;;5038127;28;20044;-88
2022/11/04 00:35:11;;;;;;;1.95;1.00;;;10.90;99.90;;;;;;5026950;28;20127;-88
2022/11/04 00:37:41;;;;;;;1.90;0.80;;;10.90;99.90;;;;;;5024851;28;20041;-88
2022/11/04 00:40:10;;;;;;;2.63;0.70;;;10.80;99.90;;;;;;5008444;28;20046;-88
2022/11/04 00:42:36;;;;;;;0.90;0.60;;;10.80;99.90;;;;;;5031875;28;20365;-89
2022/11/04 00:45:02;;;;;;;0.98;0.57;;;10.80;99.90;;;;;;4996567;28;20038;-88
2022/11/04 00:47:28;;;;;;;0.55;0.50;;;10.80;99.90;;;;;;5035508;28;20412;-89
2022/11/04 00:49:53;;;;;;;0.95;0.70;;;10.80;99.90;;;;;;5041083;28;20040;-89
2022/11/04 00:52:19;;;;;;;0.70;0.45;;;10.80;99.90;;;;;;5017422;28;20041;-89
2022/11/04 00:54:45;;;;;;;0.55;0.47;;;10.80;99.90;;;;;;5015673;28;20056;-89
2022/11/04 00:57:11;;;;;;;0.68;0.40;;;10.70;99.90;;;;;;5022935;28;20041;-89
2022/11/04 00:59:38;;;;;;;1.52;0.50;;;10.70;99.90;;;;;;5034223;28;20044;-89
2022/11/04 01:02:05;;;;;;;2.60;1.10;;;10.70;99.90;;;;;;5020081;28;20033;-88
2022/11/04 01:04:30;;;;;;;1.35;0.68;;;10.70;99.90;;;;;;5014039;28;20497;-88
2022/11/04 01:06:59;;;;;;;2.38;1.00;;;10.70;99.90;;;;;;5021159;28;20033;-87
2022/11/04 01:09:24;;;;;;;4.93;0.63;;;10.60;99.90;;;;;;5011896;28;20127;-88
2022/11/04 01:11:50;;;;;;;0.80;0.60;;;10.60;99.90;;;;;;4997729;28;20085;-88
2022/11/04 01:14:16;;;;;;;0.75;0.60;;;10.70;99.90;;;;;;5001345;28;20044;-88
2022/11/04 01:16:42;;;;;;;3.00;0.90;;;10.70;99.90;;;;;;5014273;28;20025;-89
2022/11/04 01:19:09;;;;;;;0.57;0.57;;;10.60;99.90;;;;;;5037589;28;20056;-88
2022/11/04 01:21:34;;;;;;;1.40;0.52;;;10.60;99.90;;;;;;5018177;28;20041;-88
2022/11/04 01:24:00;;;;;;;2.25;1.00;;;10.60;99.90;;;;;;5020965;28;20099;-87
2022/11/04 01:26:28;;;;;;;2.25;0.90;;;10.60;99.90;;;;;;5026064;28;20133;-88
2022/11/04 01:28:54;;;;;;;0.82;0.80;;;10.60;99.90;;;;;;5001072;28;20051;-89
2022/11/04 01:31:27;;;;;;;1.13;0.70;;;10.60;99.90;;;;;;5021547;28;20045;-88
2022/11/04 01:33:53;;;;;;;1.55;0.90;;;10.50;99.90;;;;;;5017819;28;20080;-88
2022/11/04 01:36:19;;;;;;;1.85;0.75;;;10.50;99.90;;;;;;5000489;28;20050;-89
2022/11/04 01:38:45;;;;;;;1.42;0.90;;;10.50;99.90;;;;;;5001583;28;20037;-88
2022/11/04 01:41:23;;;;;;;1.77;0.60;;;10.50;99.90;;;;;;5017208;28;20037;-88
2022/11/04 01:44:01;;;;;;;1.42;0.77;;;10.50;99.90;;;;;;5001242;28;20404;-88
2022/11/04 01:46:33;;;;;;;2.15;0.93;;;10.50;99.90;;;;;;5000494;28;20034;-88
2022/11/04 01:49:16;;;;;;;2.58;0.90;;;10.50;99.90;;;;;;5017172;28;20044;-89
2022/11/04 01:51:43;;;;;;;2.40;1.10;;;10.50;99.90;;;;;;5019275;28;20049;-88
2022/11/04 01:54:10;;;;;;;2.05;1.17;;;10.50;99.90;;;;;;5005483;28;20395;-89
2022/11/04 01:56:36;;;;;;;1.42;1.08;;;10.50;99.90;;;;;;5018414;28;20049;-88
2022/11/04 01:59:08;;;;;;;1.55;1.17;;;10.50;99.90;;;;;;5020486;28;20507;-89
2022/11/04 02:01:33;;;;;;;2.00;1.52;;;10.50;99.90;;;;;;5003262;28;20128;-88
2022/11/04 02:04:24;;;;;;;2.28;1.63;;;10.40;99.90;;;;;;5030641;28;20444;-88
2022/11/04 02:06:47;;;;;;;2.35;1.88;;;10.50;99.90;;;;;;5032578;28;20045;-89
2022/11/04 02:09:15;;;;;;;5.13;2.78;;;10.50;99.90;;;;;;5016702;28;20045;-89
2022/11/04 02:14:25;;;;;;;7.00;4.53;;;10.60;99.90;;;;;;5031080;28;20041;-88
2022/11/04 02:16:54;;;;;;;5.38;3.10;;;10.60;99.90;;;;;;5017195;28;20037;-89
2022/11/04 02:19:47;;;;;;;4.20;2.97;;;10.60;99.90;;;;;;5012966;28;20450;-89
2022/11/04 02:22:31;;;;;;;7.67;3.33;;;10.60;99.90;;;;;;5045484;28;20040;-89
2022/11/04 02:25:12;;;;;;;5.55;3.70;;;10.60;99.90;;;;;;5029475;28;20140;-89
2022/11/04 02:27:57;;;;;;;6.60;4.07;;;10.70;99.90;;;;;;5023304;28;20044;-89
2022/11/04 02:30:22;;;;;;;7.53;4.90;;;10.70;99.90;;;;;;5016171;28;20096;-88
2022/11/04 02:33:03;;;;;;;8.60;5.78;;;10.70;99.90;;;;;;5021002;28;20037;-88
2022/11/04 02:35:35;;;;;;;8.65;5.10;;;10.70;99.90;;;;;;5023361;28;20061;-88
2022/11/04 02:38:12;;;;;;;7.28;5.15;;;10.70;99.90;;;;;;5019840;28;20085;-88
2022/11/04 02:40:48;;;;;;;7.97;4.75;;;10.60;99.90;;;;;;5023935;28;20064;-87
2022/11/04 02:43:37;;;;;;;12.20;5.88;;;10.60;99.90;;;;;;5027773;28;20041;-88
2022/11/04 02:46:22;;;;;;;7.03;5.63;;;10.60;99.90;;;;;;5023591;28;20040;-88
2022/11/04 02:49:09;;;;;;;7.65;5.78;;;10.60;99.90;;;;;;5028397;28;20045;-88
2022/11/04 02:51:43;;;;;;;9.00;6.70;;;10.60;99.90;;;;;;5026404;28;20127;-87
2022/11/04 02:54:32;;;;;;;9.75;6.40;;;10.60;99.90;;;;;;5024905;28;20048;-88
2022/11/04 02:57:00;;;;;;;8.90;6.60;;;10.60;99.90;;;;;;5037591;28;20033;-87
2022/11/04 02:59:58;;;;;;;8.60;6.70;;;10.60;99.90;;;;;;5042016;28;20179;-89
2022/11/04 03:02:33;;;;;;;10.35;7.45;;;10.60;99.90;;;;;;5001668;28;20056;-87
2022/11/04 03:05:00;;;;;;;9.60;7.78;;;10.60;99.90;;;;;;5023747;28;20064;-88
2022/11/04 03:07:32;;;;;;;9.32;6.75;;;10.60;99.90;;;;;;5025326;28;20409;-88
2022/11/04 03:10:04;;;;;;;9.77;6.82;;;10.60;99.90;;;;;;5015446;28;20500;-88
2022/11/04 03:12:34;;;;;;;11.20;6.35;;;10.60;99.90;;;;;;5023686;28;20068;-87
2022/11/04 03:15:07;;;;;;;7.32;5.15;;;10.60;99.90;;;;;;5015700;28;20040;-87
2022/11/04 03:17:45;;;;;;;7.03;4.80;;;10.60;99.90;;;;;;5001130;28;20041;-88
2022/11/04 03:20:22;;;;;;;6.10;4.55;;;10.50;99.90;;;;;;5044222;28;20033;-88
2022/11/04 03:22:48;;;;;;;6.03;4.80;;;10.50;99.90;;;;;;5023586;28;20083;-87
2022/11/04 03:25:14;;;;;;;6.25;4.50;;;10.50;99.90;;;;;;5030400;28;20064;-87
2022/11/04 03:28:04;;;;;;;6.15;4.40;;;10.60;99.90;;;;;;5021753;28;20037;-87
2022/11/04 03:30:44;;;;;;;4.22;3.78;;;10.50;99.90;;;;;;4998715;28;20481;-89
2022/11/04 03:33:28;;;;;;;4.78;3.53;;;10.50;99.90;;;;;;4996921;28;20497;-86
2022/11/04 03:35:54;;;;;;;;;;;10.50;99.90;;;;;;5027935;28;20040;-88
2022/11/04 03:38:21;;;;;;;5.22;2.70;;;10.50;99.90;;;;;;5023162;28;19917;-88
2022/11/04 03:40:47;;;;;;;4.68;2.95;;;10.50;99.90;;;;;;5029247;28;20059;-88
2022/11/04 03:43:26;;;;;;;4.53;2.92;;;10.30;99.90;;;;;;5020982;28;20040;-88
2022/11/04 03:45:53;;;;;;;3.78;2.67;;;10.30;99.90;;;;;;5018102;28;20499;-87
2022/11/04 03:48:19;;;;;;;3.13;2.22;;;10.20;99.90;;;;;;4998000;28;20523;-88
2022/11/04 03:50:47;;;;;;;4.03;1.85;;;10.40;99.90;;;;;;5001598;28;20025;-89
2022/11/04 03:53:15;;;;;;;3.13;2.28;;;10.30;99.90;;;;;;5019198;28;20030;-88
2022/11/04 03:56:00;;;;;;;2.95;1.40;;;10.30;99.90;;;;;;5007902;28;20392;-88
2022/11/04 03:58:41;;;;;;;1.95;1.02;;;10.20;99.90;;;;;;5028388;28;20123;-89
2022/11/04 04:01:24;;;;;;;2.35;1.00;;;10.10;99.90;;;;;;5015515;28;20056;-87
2022/11/04 04:04:13;;;;;;;4.72;2.17;;;10.00;99.90;;;;;;5000699;28;20563;-88
2022/11/04 04:06:42;;;;;;;4.40;2.50;;;10.00;99.90;;;;;;5020572;28;20045;-88
2022/11/04 04:09:07;;;;;;;2.30;2.00;;;10.00;99.90;;;;;;5021318;28;20041;-88
2022/11/04 04:11:59;;;;;;;2.40;1.33;;;9.90;99.90;;;;;;5015456;28;20519;-89
2022/11/04 04:14:38;;;;;;;2.58;1.13;;;9.80;99.90;;;;;;5004761;28;20388;-88
2022/11/04 04:17:28;;;;;;;1.48;0.80;;;9.80;99.90;;;;;;5004152;28;20030;-88
2022/11/04 04:19:59;;;;;;;1.40;0.90;;;9.80;99.90;;;;;;5008146;28;20176;-88
2022/11/04 04:22:42;;;;;;;3.38;0.90;;;9.80;99.90;;;;;;4997986;28;20044;-87
2022/11/04 04:27:57;;;;;;;1.58;1.08;;;9.80;99.90;;;;;;5038910;28;20104;-87
2022/11/04 04:30:23;;;;;;;1.55;1.10;;;9.80;99.90;;;;;;5021575;28;20128;-87
2022/11/04 04:32:54;;;;;;;2.05;1.50;;;9.80;99.90;;;;;;5028603;28;20540;-88
2022/11/04 04:35:41;;;;;;;3.03;1.40;;;9.80;99.90;;;;;;5019055;28;20393;-88
2022/11/04 04:46:44;;;;;;;2.17;1.80;;;9.80;99.90;;;;;;5033269;28;20076;-89
2022/11/04 04:49:10;;;;;;;1.42;1.30;;;9.80;99.90;;;;;;5006189;28;20124;-88
2022/11/04 04:51:40;;;;;;;2.22;1.17;;;9.80;99.90;;;;;;5004917;28;20116;-87
2022/11/04 04:54:06;;;;;;;2.97;1.40;;;9.80;99.90;;;;;;5027439;28;20044;-89
2022/11/04 04:56:31;;;;;;;3.70;1.73;;;9.80;99.90;;;;;;5025785;28;20037;-88
2022/11/04 04:58:57;;;;;;;3.50;1.50;;;9.80;99.90;;;;;;5002139;28;20040;-88
2022/11/04 05:01:23;;;;;;;4.00;1.52;;;9.90;99.90;;;;;;5013652;28;20439;-89
2022/11/04 05:03:48;;;;;;;2.80;1.50;;;9.80;99.90;;;;;;5016964;28;20083;-89
2022/11/04 05:06:14;;;;;;;3.53;1.35;;;9.80;99.90;;;;;;5034470;28;20073;-85
2022/11/04 05:08:39;;;;;;;2.85;1.30;;;9.70;99.90;;;;;;5013286;28;20493;-88
2022/11/04 05:11:05;;;;;;;1.55;0.98;;;9.70;99.90;;;;;;5020591;28;20108;-90
2022/11/04 05:13:31;;;;;;;1.80;1.02;;;9.70;99.90;;;;;;5022711;28;20119;-89
2022/11/04 05:16:03;;;;;;;5.30;1.08;;;9.70;99.90;;;;;;5002254;28;20053;-88
2022/11/04 05:18:28;;;;;;;5.57;2.17;;;9.70;99.90;;;;;;5029448;28;20048;-89
2022/11/04 05:20:54;;;;;;;1.40;1.00;;;9.50;99.90;;;;;;5011817;28;20037;-88
2022/11/04 05:23:20;;;;;;;2.00;1.08;;;9.60;99.90;;;;;;5040254;28;20045;-89
2022/11/04 05:25:45;;;;;;;4.50;1.55;;;9.50;99.90;;;;;;5003258;28;20037;-90
2022/11/04 05:28:11;;;;;;;4.53;1.95;;;9.50;99.90;;;;;;5017619;28;20072;-89
2022/11/04 05:30:37;;;;;;;3.22;1.17;;;9.40;99.90;;;;;;5017363;28;20037;-89
2022/11/04 05:33:03;;;;;;;2.25;0.70;;;9.40;99.90;;;;;;5014851;28;20158;-89
2022/11/04 05:35:28;;;;;;;1.27;0.55;;;9.40;99.90;;;;;;5015745;28;20029;-87
2022/11/04 05:37:55;;;;;;;1.35;0.70;;;9.40;99.90;;;;;;5025134;28;20039;-89
2022/11/04 05:40:21;;;;;;;11.10;5.20;;;9.40;99.90;;;;;;5031048;28;20045;-88
2022/11/04 05:42:47;;;;;;;4.82;1.70;;;9.30;99.90;;;;;;5010025;28;20040;-88
2022/11/04 05:45:12;;;;;;;0.88;0.50;;;9.20;99.90;;;;;;5000097;28;20083;-89
2022/11/04 05:47:38;;;;;;;13.85;6.65;;;9.20;99.90;;;;;;5011474;28;20038;-90
2022/11/04 05:50:04;;;;;;;5.53;3.10;;;9.10;99.90;;;;;;5007675;28;20164;-89
2022/11/04 05:52:30;;;;;;;6.05;3.63;;;9.10;99.90;;;;;;5027217;28;20556;-89
2022/11/04 05:54:55;;;;;;;2.55;1.38;;;9.10;99.90;;;;;;5000035;28;20033;-88
2022/11/04 05:57:21;;;;;;;3.90;2.20;;;9.00;99.90;;;;;;5016601;28;20041;-89
2022/11/04 05:59:46;;;;;;;6.60;3.75;;;8.90;99.90;;;;;;5005446;28;20722;-88
2022/11/04 06:02:12;;;;;;;16.80;10.20;;;8.90;99.90;;;;;;5011629;28;20120;-89
2022/11/04 06:04:38;;;;;;;17.67;10.57;;;8.80;99.90;;;;;;5008548;28;20026;-89
2022/11/04 06:07:04;;;;;;;5.65;3.67;;;8.80;99.90;;;;;;5013336;28;20121;-89
2022/11/04 06:09:38;;;;;;;3.25;1.30;;;8.70;99.90;;;;;;5008994;28;20050;-88
2022/11/04 06:12:10;;;;;;;2.90;1.55;;;8.70;99.90;;;;;;5014025;28;20132;-90
2022/11/04 06:14:35;;;;;;;6.28;3.15;;;8.80;99.90;;;;;;5012677;28;20041;-89
2022/11/04 06:17:02;;;;;;;5.15;1.90;;;8.80;99.90;;;;;;5029401;28;20056;-90
2022/11/04 06:19:27;;;;;;;7.30;3.47;;;8.80;99.90;;;;;;5014194;28;20052;-90
2022/11/04 06:21:53;;;;;;;7.80;4.47;;;8.80;99.90;;;;;;5024702;28;20045;-90
2022/11/04 06:24:19;;;;;;;27.40;13.85;;;8.80;99.90;;;;;;5006585;28;20048;-89
2022/11/04 06:26:45;;;;;;;13.02;6.85;;;8.80;99.90;;;;;;5006726;28;20046;-90
2022/11/04 06:29:11;;;;;;;44.75;22.75;;;8.80;99.90;;;;;;5014375;28;20053;-90
2022/11/04 06:31:36;;;;;;;4.70;3.35;;;8.80;99.90;;;;;;4997310;28;20039;-89
2022/11/04 06:34:03;;;;;;;6.43;3.38;;;8.90;99.90;;;;;;5039820;28;20125;-89
2022/11/04 06:36:28;;;;;;;3.72;2.83;;;8.90;99.90;;;;;;4997944;28;20025;-90
2022/11/04 06:38:54;;;;;;;16.77;10.98;;;8.90;99.90;;;;;;5013061;28;20086;-90
2022/11/04 06:41:20;;;;;;;11.00;5.93;;;8.90;99.90;;;;;;5028530;28;20438;-89
2022/11/04 06:43:46;;;;;;;7.45;3.38;;;9.00;99.90;;;;;;5015958;28;20055;-91
2022/11/04 06:46:37;;;;;;;4.90;2.78;;;8.90;99.90;;;;;;5008628;28;20048;-89
2022/11/04 06:49:25;;;;;;;4.65;2.60;;;9.00;99.90;;;;;;5010093;28;20049;-89
2022/11/04 06:51:53;;;;;;;2.78;1.80;;;9.00;99.90;;;;;;5001808;28;20101;-88
2022/11/04 06:54:22;;;;;;;3.35;2.10;;;8.90;99.90;;;;;;5010558;28;20049;-88
2022/11/04 06:56:48;;;;;;;2.95;1.88;;;8.90;99.90;;;;;;4995061;28;20050;-89
2022/11/04 06:59:19;;;;;;;5.88;4.45;;;8.90;99.90;;;;;;5005803;28;20037;-90
2022/11/04 07:01:45;;;;;;;7.68;5.40;;;8.90;99.90;;;;;;5010055;28;20052;-90
2022/11/04 07:04:11;;;;;;;16.38;11.10;;;8.80;99.90;;;;;;5024688;28;20582;-89
2022/11/04 07:06:40;;;;;;;8.52;5.90;;;8.70;99.90;;;;;;5038705;28;20056;-90
2022/11/04 07:09:06;;;;;;;4.47;3.20;;;8.70;99.90;;;;;;5020375;28;20037;-92
2022/11/04 07:11:32;;;;;;;7.50;4.55;;;8.80;99.90;;;;;;5031157;28;20075;-91
2022/11/04 07:13:58;;;;;;;7.97;7.22;;;8.70;99.90;;;;;;5020238;28;20032;-90
2022/11/04 07:16:24;;;;;;;5.50;3.40;;;8.70;99.90;;;;;;5051540;28;20555;-89
2022/11/04 07:18:50;;;;;;;4.95;3.50;;;8.80;99.90;;;;;;5016111;28;20496;-90
2022/11/04 07:21:27;;;;;;;4.65;3.08;;;9.00;99.90;;;;;;5027241;28;20041;-91
2022/11/04 07:23:53;;;;;;;5.38;3.03;;;8.90;99.90;;;;;;5004813;28;20116;-84
2022/11/04 07:26:19;;;;;;;6.38;3.50;;;8.90;99.90;;;;;;5025581;28;20064;-89
2022/11/04 07:28:45;;;;;;;5.57;3.83;;;8.90;99.90;;;;;;5025994;28;20079;-91
2022/11/04 07:31:14;;;;;;;6.22;3.88;;;8.90;99.90;;;;;;5015566;28;20048;-88
2022/11/04 07:33:39;;;;;;;5.45;4.90;;;8.90;99.90;;;;;;5020979;28;20115;-90
2022/11/04 07:36:11;;;;;;;5.55;4.53;;;8.80;99.90;;;;;;5031248;28;20120;-91
2022/11/04 07:38:36;;;;;;;7.07;4.40;;;8.80;99.90;;;;;;4997790;28;20033;-87
2022/11/04 07:41:02;;;;;;;7.40;6.10;;;8.90;99.90;;;;;;5014213;28;20045;-90
2022/11/04 07:43:29;;;;;;;7.07;5.70;;;8.90;99.90;;;;;;5016846;28;20045;-90
2022/11/04 07:46:03;;;;;;;12.98;7.32;;;9.00;99.90;;;;;;5001258;28;20048;-90
2022/11/04 07:48:29;;;;;;;9.25;6.68;;;9.10;99.90;;;;;;5018288;28;20120;-90
2022/11/04 07:50:59;;;;;;;9.30;6.78;;;9.20;99.90;;;;;;5021508;28;20060;-90
2022/11/04 07:53:26;;;;;;;9.38;6.72;;;9.30;99.90;;;;;;5016988;28;20029;-90
2022/11/04 07:55:51;;;;;;;10.93;6.55;;;9.50;99.90;;;;;;5027809;28;20048;-90
2022/11/04 07:58:19;;;;;;;10.57;6.93;;;9.50;99.90;;;;;;5018715;28;20496;-91
2022/11/04 08:00:44;;;;;;;9.95;7.13;;;9.50;99.90;;;;;;5013358;28;20484;-90
2022/11/04 08:03:10;;;;;;;11.30;8.15;;;9.40;99.90;;;;;;5037418;28;20065;-90
2022/11/04 08:05:36;;;;;;;11.10;8.65;;;9.50;99.90;;;;;;5010967;28;20033;-91
2022/11/04 08:08:03;;;;;;;14.13;8.90;;;9.60;99.90;;;;;;5020069;28;20080;-91
2022/11/04 08:10:29;;;;;;;14.35;9.15;;;9.80;99.90;;;;;;5012283;28;20037;-89
2022/11/04 08:12:55;;;;;;;15.77;9.85;;;9.90;99.90;;;;;;5022233;28;20082;-90
2022/11/04 08:15:21;;;;;;;12.68;8.63;;;9.90;99.90;;;;;;5016722;28;20461;-89
2022/11/04 08:17:46;;;;;;;12.73;8.88;;;10.10;99.90;;;;;;5015877;28;20068;-89
2022/11/04 08:20:12;;;;;;;13.82;9.02;;;10.30;99.90;;;;;;5023071;28;20045;-90
2022/11/04 08:22:38;;;;;;;12.98;8.75;;;10.00;99.90;;;;;;5018654;28;20072;-90
2022/11/04 08:25:04;;;;;;;15.18;9.98;;;10.10;99.90;;;;;;5028266;28;20040;-89
2022/11/04 08:27:30;;;;;;;15.15;10.00;;;10.00;99.90;;;;;;4999988;28;20042;-89
2022/11/04 08:29:56;;;;;;;15.65;10.93;;;10.00;99.90;;;;;;5006780;28;20117;-89
2022/11/04 08:32:22;;;;;;;17.35;10.70;;;10.30;99.90;;;;;;5001455;28;20481;-89
2022/11/04 08:34:48;;;;;;;19.10;11.93;;;10.90;99.90;;;;;;5019376;28;20506;-90
2022/11/04 08:37:15;;;;;;;15.10;9.70;;;11.50;99.90;;;;;;5020884;28;20123;-89
2022/11/04 08:39:41;;;;;;;14.80;9.85;;;12.00;99.90;;;;;;5017533;28;20097;-90
2022/11/04 08:42:07;;;;;;;11.85;8.30;;;12.60;99.90;;;;;;5020169;28;20492;-90
2022/11/04 08:44:33;;;;;;;10.30;8.30;;;13.10;99.90;;;;;;5013214;28;20416;-91
2022/11/04 08:46:59;;;;;;;13.13;9.95;;;13.50;99.90;;;;;;5026153;28;20033;-90
2022/11/04 08:49:25;;;;;;;12.45;8.63;;;13.80;99.90;;;;;;5025205;28;20084;-90
2022/11/04 08:51:59;;;;;;;9.45;8.38;;;14.20;99.90;;;;;;4999460;28;20377;-90
2022/11/04 08:54:25;;;;;;;10.95;8.32;;;14.20;99.90;;;;;;5020033;28;20047;-90
2022/11/04 08:56:51;;;;;;;11.25;9.95;;;14.40;99.90;;;;;;5015020;28;20036;-90
2022/11/04 08:59:17;;;;;;;11.98;8.70;;;14.20;99.90;;;;;;5032837;28;20474;-90
2022/11/04 09:01:43;;;;;;;13.30;9.27;;;14.30;99.90;;;;;;5018780;28;20037;-90
2022/11/04 09:04:10;;;;;;;11.85;9.77;;;14.30;99.90;;;;;;5015864;28;20065;-89
2022/11/04 09:06:39;;;;;;;10.55;9.40;;;14.30;99.90;;;;;;5030428;28;20568;-90
2022/11/04 09:09:07;;;;;;;13.30;11.13;;;14.70;99.90;;;;;;4999322;28;20496;-90
2022/11/04 09:11:37;;;;;;;12.27;10.68;;;15.00;99.90;;;;;;5015316;28;20468;-89
2022/11/04 09:14:03;;;;;;;13.85;11.15;;;15.30;99.90;;;;;;5019236;28;20036;-90
2022/11/04 09:16:30;;;;;;;13.18;11.20;;;15.40;99.90;;;;;;5012242;28;20034;-89
2022/11/04 09:18:57;;;;;;;12.27;10.95;;;15.40;99.90;;;;;;5021232;28;20361;-89
2022/11/04 09:21:23;;;;;;;17.02;11.80;;;15.40;99.90;;;;;;5017192;28;20407;-90
2022/11/04 09:23:49;;;;;;;14.02;12.23;;;15.50;99.90;;;;;;4998119;28;20053;-90
2022/11/04 09:26:19;;;;;;;14.25;11.35;;;15.20;99.90;;;;;;5021214;28;20192;-89
2022/11/04 09:28:45;;;;;;;16.40;12.63;;;14.90;99.90;;;;;;5019285;28;20038;-90
2022/11/04 09:31:15;;;;;;;16.67;12.82;;;14.60;99.90;;;;;;5037199;28;20083;-89
2022/11/04 09:33:41;;;;;;;15.52;12.57;;;14.40;99.90;;;;;;5001704;28;20392;-90
2022/11/04 09:36:08;;;;;;;14.55;11.73;;;14.50;99.90;;;;;;5033695;28;20091;-90
2022/11/04 09:38:35;;;;;;;13.55;11.95;;;14.60;99.90;;;;;;5010767;28;20044;-90
2022/11/04 09:41:27;;;;;;;16.77;13.20;;;14.50;99.90;;;;;;5033553;28;20080;-89
2022/11/04 09:43:59;;;;;;;17.58;13.45;;;14.20;99.90;;;;;;4970178;28;20092;-90
2022/11/04 09:46:26;;;;;;;19.77;14.77;;;13.90;99.90;;;;;;5016801;28;20052;-90
2022/11/04 09:48:55;;;;;;;17.35;13.60;;;13.80;99.90;;;;;;5019752;28;20045;-89
2022/11/04 09:51:25;;;;;;;14.95;12.95;;;13.80;99.90;;;;;;5022242;28;20041;-90
2022/11/04 09:54:01;;;;;;;18.83;15.13;;;14.10;99.90;;;;;;5014611;28;20575;-90
2022/11/04 09:56:41;;;;;;;17.17;14.00;;;14.40;99.90;;;;;;5003029;28;20084;-90
2022/11/04 09:59:10;;;;;;;18.92;14.90;;;14.00;99.90;;;;;;4999061;28;20050;-89
2022/11/04 10:01:59;;;;;;;18.05;13.95;;;13.80;99.90;;;;;;5028942;28;20036;-90
2022/11/04 10:04:43;;;;;;;16.65;13.95;;;13.50;99.90;;;;;;5030657;28;20091;-91
2022/11/04 10:07:22;;;;;;;20.98;14.98;;;13.40;99.90;;;;;;5028982;28;20098;-90
2022/11/04 10:10:06;;;;;;;18.88;14.68;;;13.50;99.90;;;;;;5025542;28;20040;-90
2022/11/04 10:12:50;;;;;;;19.02;14.15;;;13.50;99.90;;;;;;5019726;28;20034;-89
2022/11/04 10:15:28;;;;;;;20.95;14.63;;;13.50;99.90;;;;;;5033178;28;20064;-88
2022/11/04 10:18:27;;;;;;;21.67;14.85;;;13.30;99.90;;;;;;5023763;28;20082;-89
2022/11/04 10:21:09;;;;;;;18.55;14.93;;;13.60;99.90;;;;;;5022392;28;20075;-89
2022/11/04 10:23:52;;;;;;;23.55;16.13;;;14.00;99.90;;;;;;5042928;28;20044;-89
2022/11/04 10:26:30;;;;;;;22.33;16.77;;;14.10;99.90;;;;;;5049859;28;20041;-89
2022/11/04 10:29:03;;;;;;;20.30;15.23;;;14.40;99.90;;;;;;5035606;28;20080;-87
2022/11/04 10:31:28;;;;;;;21.30;16.23;;;14.90;99.90;;;;;;5042597;28;20041;-88
2022/11/04 10:34:07;;;;;;;22.63;16.80;;;15.60;99.90;;;;;;5069217;28;20031;-88
2022/11/04 10:36:35;;;;;;;18.52;14.75;;;16.00;99.90;;;;;;5036117;28;20116;-88
2022/11/04 10:39:12;;;;;;;20.17;14.77;;;15.80;99.90;;;;;;5053493;28;20035;-88
2022/11/04 10:41:39;;;;;;;22.10;15.77;;;15.30;99.90;;;;;;5041303;28;20057;-88
2022/11/04 10:44:09;;;;;;;18.52;13.60;;;14.70;99.90;;;;;;5039803;28;20021;-88
2022/11/04 10:46:58;;;;;;;18.77;15.95;;;14.10;99.90;;;;;;5037634;28;20025;-89
2022/11/04 10:49:38;;;;;;;21.00;15.57;;;14.10;99.90;;;;;;5023111;28;20420;-91
2022/11/04 10:52:05;;;;;;;21.25;15.23;;;14.60;99.90;;;;;;5031420;28;20125;-90
2022/11/04 10:54:46;;;;;;;20.17;15.57;;;15.40;99.90;;;;;;4999878;28;20037;-90
2022/11/04 10:57:16;;;;;;;16.50;14.45;;;15.70;99.90;;;;;;5015895;28;20065;-90
2022/11/04 10:59:55;;;;;;;17.67;13.80;;;15.60;99.90;;;;;;5011084;28;20124;-90
2022/11/04 11:02:36;;;;;;;17.38;14.60;;;16.00;99.90;;;;;;5013208;28;20044;-88
2022/11/04 11:05:13;;;;;;;19.52;15.93;;;16.40;99.90;;;;;;5025517;28;20036;-86
2022/11/04 11:07:39;;;;;;;16.75;14.95;;;16.40;99.90;;;;;;5019613;28;20037;-87
2022/11/04 11:10:15;;;;;;;20.23;15.45;;;16.30;99.90;;;;;;5023865;28;20520;-88
2022/11/04 11:12:49;;;;;;;17.33;14.55;;;16.10;99.90;;;;;;5032802;28;20128;-88
2022/11/04 11:15:36;;;;;;;15.70;13.63;;;15.80;99.90;;;;;;5022092;28;20040;-88
2022/11/04 11:18:05;;;;;;;17.98;13.73;;;15.40;99.90;;;;;;5022103;28;20045;-88
2022/11/04 11:20:32;;;;;;;15.57;13.80;;;15.30;99.90;;;;;;5020708;28;20046;-88
2022/11/04 11:23:00;;;;;;;19.55;14.65;;;15.40;99.90;;;;;;5052214;28;20444;-88
2022/11/04 11:25:27;;;;;;;17.70;13.98;;;15.50;99.90;;;;;;5019014;28;20041;-89
2022/11/04 11:28:04;;;;;;;16.85;13.30;;;15.80;99.90;;;;;;5028232;28;20046;-89
2022/11/04 11:30:56;;;;;;;17.38;14.32;;;16.20;99.90;;;;;;5008737;28;20102;-89
2022/11/04 11:33:29;;;;;;;15.48;13.25;;;16.90;99.90;;;;;;5015583;28;20039;-88
2022/11/04 11:36:18;;;;;;;16.52;13.73;;;17.60;99.90;;;;;;5026860;28;20029;-89
2022/11/04 11:39:10;;;;;;;15.07;13.43;;;18.00;99.90;;;;;;5012554;28;20049;-88
2022/11/04 11:41:54;;;;;;;15.52;13.57;;;18.10;99.90;;;;;;4990564;28;20049;-88
2022/11/04 11:44:33;;;;;;;13.13;11.50;;;18.50;99.90;;;;;;5033161;28;20048;-88
2022/11/04 11:47:03;;;;;;;14.20;11.90;;;18.70;99.90;;;;;;4987871;28;20057;-88
2022/11/04 11:49:32;;;;;;;14.35;12.43;;;19.20;99.90;;;;;;5009356;28;20123;-88
2022/11/04 11:52:32;;;;;;;17.63;11.90;;;19.60;99.90;;;;;;5021814;28;20041;-89
2022/11/04 11:55:12;;;;;;;13.38;11.63;;;19.80;99.90;;;;;;4995749;28;20038;-88
2022/11/04 11:57:45;;;;;;;11.15;9.98;;;20.00;99.90;;;;;;5020087;28;20037;-87
2022/11/04 12:00:17;;;;;;;11.55;9.23;;;20.40;99.90;;;;;;5014711;28;20038;-87
2022/11/04 12:03:11;;;;;;;9.23;8.32;;;20.00;99.90;;;;;;5040167;28;20107;-88
2022/11/04 12:05:51;;;;;;;11.10;9.52;;;19.30;99.90;;;;;;5035039;28;20045;-87
2022/11/04 12:08:54;;;;;;;13.25;10.20;;;18.90;99.90;;;;;;5016723;28;20051;-88
2022/11/04 12:11:35;;;;;;;10.32;9.23;;;19.30;99.90;;;;;;5000979;28;20042;-88
2022/11/04 12:14:29;;;;;;;11.60;10.50;;;19.80;99.90;;;;;;5033301;28;20487;-87
2022/11/04 12:17:12;;;;;;;12.15;10.23;;;20.40;99.90;;;;;;5018486;28;20045;-88
2022/11/04 12:19:44;;;;;;;10.05;9.05;;;20.80;99.90;;;;;;5057977;28;20041;-88
2022/11/04 12:22:28;;;;;;;14.13;10.82;;;20.80;99.90;;;;;;5023555;28;20045;-88
2022/11/04 12:25:11;;;;;;;11.68;10.55;;;20.20;99.90;;;;;;5023989;28;20106;-87
2022/11/04 12:28:07;;;;;;;11.00;9.73;;;19.30;99.90;;;;;;5008849;28;20049;-89
2022/11/04 12:30:49;;;;;;;13.23;10.20;;;18.50;99.90;;;;;;5000511;28;20049;-88
2022/11/04 12:33:40;;;;;;;11.23;10.00;;;18.30;99.90;;;;;;5015921;28;20485;-88
2022/11/04 12:36:40;;;;;;;10.73;9.63;;;18.10;99.90;;;;;;5022987;28;20494;-89
2022/11/04 12:39:28;;;;;;;10.55;8.77;;;18.00;99.90;;;;;;5013547;28;20357;-88
2022/11/04 12:42:12;;;;;;;11.75;9.32;;;18.10;99.90;;;;;;5027954;28;20064;-89
2022/11/04 12:44:55;;;;;;;10.07;8.88;;;18.10;99.90;;;;;;5033413;28;20093;-89
2022/11/04 12:47:45;;;;;;;10.90;8.43;;;19.30;99.90;;;;;;5029170;28;20049;-88
2022/11/04 12:50:52;;;;;;;10.73;8.68;;;20.40;99.90;;;;;;5021739;28;20040;-88
2022/11/04 12:53:50;;;;;;;11.45;8.95;;;20.90;99.90;;;;;;5021056;28;20052;-88
2022/11/04 12:56:36;;;;;;;10.88;8.20;;;20.40;99.90;;;;;;5002956;28;20052;-87
2022/11/04 12:59:11;;;;;;;8.35;7.53;;;20.00;99.90;;;;;;5010413;28;20049;-88
2022/11/04 13:01:49;;;;;;;9.80;8.00;;;20.50;99.90;;;;;;5024245;28;20060;-87
2022/11/04 13:04:40;;;;;;;8.63;6.57;;;21.10;99.90;;;;;;5042429;28;20507;-87
2022/11/04 13:07:17;;;;;;;8.02;5.88;;;21.40;99.90;;;;;;5012880;28;20042;-87
2022/11/04 13:10:05;;;;;;;2.38;1.35;;;21.20;99.90;;;;;;5020394;28;20037;-87
2022/11/04 13:12:37;;;;;;;4.30;1.20;;;19.90;99.90;;;;;;5037045;28;20044;-88
2022/11/04 13:15:15;;;;;;;4.80;1.50;;;18.50;99.90;;;;;;5032302;28;20037;-89
2022/11/04 13:17:44;;;;;;;2.05;0.98;;;17.40;99.90;;;;;;5022111;28;20034;-87
2022/11/04 13:20:42;;;;;;;2.55;0.88;;;16.20;99.90;;;;;;5028639;28;20030;-87
2022/11/04 13:23:19;;;;;;;2.33;0.68;;;15.30;99.90;;;;;;5024778;28;20043;-87
2022/11/04 13:25:49;;;;;;;2.25;0.77;;;14.40;99.90;;;;;;5019829;28;20036;-89
2022/11/04 13:28:19;;;;;;;1.90;0.80;;;13.90;99.90;;;;;;5043569;28;20418;-88
2022/11/04 13:31:15;;;;;;;2.38;0.85;;;13.40;99.90;;;;;;5012428;28;20105;-88
2022/11/04 13:33:57;;;;;;;3.25;0.95;;;13.00;99.90;;;;;;5034371;28;20041;-90
2022/11/04 13:36:29;;;;;;;1.85;0.60;;;12.70;99.90;;;;;;5018733;28;20077;-87
2022/11/04 13:39:08;;;;;;;2.63;1.00;;;12.50;99.90;;;;;;5037078;28;20055;-88
2022/11/04 13:42:24;;;;;;;1.05;0.57;;;12.30;99.90;;;;;;5032603;28;20076;-87